Terminal Aerodrome Forecast
Issued by NWS Norman, OK

Home | Current Version | Previous Version | Text Only | Print | Product List | Glossary On
Versions: 1 2 3 4 5 6 7 8 9 10 11 12 13 14
000
FTUS44 KOUN 171732
TAFOKC
TAF
KOKC 171732Z 1718/1818 34013KT P6SM SCT250
     FM172300 03007KT P6SM SCT250
     FM180800 14010KT P6SM BKN250
     FM181400 17018G26KT P6SM SCT015 BKN250=

USA.gov is the U.S. government's official web portal to all federal, state and local government web resources and services.